createdAt,value
2022-10-29T00:00:57.247Z,77.25
2022-10-29T00:03:25.279Z,78.27
2022-10-29T00:06:04.450Z,78.09
2022-10-29T00:08:34.805Z,77.67
2022-10-29T00:11:20.365Z,77.43
2022-10-29T00:13:52.552Z,77.19
2022-10-29T00:16:23.131Z,77.66
2022-10-29T00:18:50.023Z,77.48
2022-10-29T00:21:20.192Z,77.62
2022-10-29T00:23:48.098Z,77.59
2022-10-29T00:26:15.903Z,77.29
2022-10-29T00:28:42.908Z,77.11
2022-10-29T00:31:15.912Z,77.51
2022-10-29T00:33:43.342Z,77.41
2022-10-29T00:36:16.085Z,77.69
2022-10-29T00:38:43.480Z,77.86
2022-10-29T00:41:16.531Z,77.76
2022-10-29T00:44:15.347Z,77.91
2022-10-29T00:46:47.275Z,78.23
2022-10-29T00:49:15.675Z,78.57
2022-10-29T00:51:42.827Z,78.11
2022-10-29T00:54:12.898Z,78.27
2022-10-29T00:57:13.693Z,78.30
2022-10-29T00:59:42.656Z,78.30
2022-10-29T01:02:10.544Z,78.56
2022-10-29T01:04:38.968Z,78.54
2022-10-29T01:07:06.471Z,78.52
2022-10-29T01:09:33.377Z,78.44
2022-10-29T01:12:21.517Z,78.08
2022-10-29T01:15:07.095Z,77.79
2022-10-29T01:18:07.544Z,77.08
2022-10-29T01:21:14.365Z,76.75
2022-10-29T01:24:37.155Z,76.67
2022-10-29T01:27:26.452Z,77.60
2022-10-29T01:30:21.447Z,77.70
2022-10-29T01:32:54.169Z,78.21
2022-10-29T01:35:30.228Z,78.01
2022-10-29T01:38:11.454Z,77.84
2022-10-29T01:41:15.034Z,77.27
2022-10-29T01:43:52.104Z,76.67
2022-10-29T01:46:42.589Z,76.83
2022-10-29T01:49:22.705Z,76.79
2022-10-29T01:51:50.959Z,77.23
2022-10-29T01:54:17.764Z,77.42
2022-10-29T01:56:52.660Z,77.54
2022-10-29T01:59:35.227Z,77.80
2022-10-29T02:02:39.552Z,78.14
2022-10-29T02:05:44.722Z,78.56
2022-10-29T02:08:20.206Z,78.50
2022-10-29T02:11:23.842Z,78.63
2022-10-29T02:14:07.353Z,79.33
2022-10-29T02:16:34.831Z,79.60
2022-10-29T02:19:02.082Z,79.26
2022-10-29T02:21:28.850Z,79.12
2022-10-29T02:23:55.700Z,79.51
2022-10-29T02:26:22.583Z,80.00
2022-10-29T02:28:49.428Z,79.62
2022-10-29T02:31:16.250Z,79.72
2022-10-29T02:33:43.042Z,79.83
2022-10-29T02:36:09.951Z,77.74
2022-10-29T02:38:36.751Z,78.34
2022-10-29T02:41:03.536Z,78.86
2022-10-29T02:43:30.327Z,79.38
2022-10-29T02:46:19.160Z,79.25
2022-10-29T02:48:46.400Z,79.12
2022-10-29T02:51:13.543Z,78.75
2022-10-29T02:53:40.645Z,78.93
2022-10-29T02:56:07.944Z,79.50
2022-10-29T02:58:34.876Z,79.16
2022-10-29T03:01:02.189Z,79.56
2022-10-29T03:03:29.503Z,79.32
2022-10-29T03:05:56.292Z,79.20
2022-10-29T03:08:23.138Z,78.18
2022-10-29T03:10:49.928Z,78.81
2022-10-29T03:13:17.914Z,78.89
2022-10-29T03:15:46.234Z,78.98
2022-10-29T03:18:13.065Z,78.67
2022-10-29T03:20:39.951Z,77.65
2022-10-29T03:23:06.779Z,77.65
2022-10-29T03:25:33.607Z,78.39
2022-10-29T03:28:00.371Z,78.44
2022-10-29T03:30:27.198Z,78.43
2022-10-29T03:32:54.394Z,79.15
2022-10-29T03:35:21.715Z,79.25
2022-10-29T03:37:52.464Z,79.40
2022-10-29T03:40:20.282Z,79.08
2022-10-29T03:42:47.068Z,77.88
2022-10-29T03:45:14.213Z,77.83
2022-10-29T03:47:41.063Z,79.13
2022-10-29T03:50:08.887Z,79.64
2022-10-29T03:52:35.997Z,79.64
2022-10-29T03:55:03.283Z,77.97
2022-10-29T03:57:30.102Z,77.67
2022-10-29T03:59:56.936Z,77.84
2022-10-29T04:02:24.789Z,77.94
2022-10-29T04:04:51.627Z,79.03
2022-10-29T04:07:18.825Z,79.84
2022-10-29T04:09:45.665Z,80.55
2022-10-29T04:12:12.423Z,81.14
2022-10-29T04:14:44.473Z,81.00
2022-10-29T04:17:12.722Z,81.10
2022-10-29T04:19:40.449Z,80.51
2022-10-29T04:30:27.874Z,78.57
2022-10-29T04:32:59.578Z,79.43
2022-10-29T04:35:28.858Z,79.19
2022-10-29T04:37:55.790Z,79.16
2022-10-29T04:40:24.757Z,78.42
2022-10-29T04:42:51.586Z,77.70
2022-10-29T04:45:18.756Z,77.22
2022-10-29T04:47:45.958Z,77.24
2022-10-29T04:50:12.786Z,76.75
2022-10-29T04:52:39.630Z,76.68
2022-10-29T04:55:06.804Z,76.87
2022-10-29T04:57:33.617Z,77.20
2022-10-29T05:00:00.428Z,77.51
2022-10-29T05:02:27.219Z,77.90
2022-10-29T05:04:54.007Z,78.14
2022-10-29T05:07:20.767Z,78.37
2022-10-29T05:09:47.572Z,78.37
2022-10-29T05:12:14.357Z,78.87
2022-10-29T05:14:41.136Z,79.45
2022-10-29T05:19:39.666Z,79.66
2022-10-29T05:22:06.450Z,79.59
2022-10-29T05:24:33.217Z,79.65
2022-10-29T05:27:00.088Z,79.82
2022-10-29T05:29:26.891Z,79.80
2022-10-29T05:31:54.587Z,79.74
2022-10-29T05:34:21.581Z,79.66
2022-10-29T05:36:48.603Z,79.82
2022-10-29T05:39:15.651Z,79.95
2022-10-29T05:41:42.432Z,79.66
2022-10-29T05:44:09.648Z,79.85
2022-10-29T05:46:36.514Z,79.61
2022-10-29T05:49:04.168Z,79.69
2022-10-29T05:51:31.029Z,79.46
2022-10-29T05:53:57.814Z,78.95
2022-10-29T05:56:24.607Z,79.27
2022-10-29T05:58:51.708Z,79.49
2022-10-29T06:01:19.846Z,79.19
2022-10-29T06:03:47.419Z,79.66
2022-10-29T06:06:14.312Z,79.61
2022-10-29T06:08:41.183Z,79.11
2022-10-29T06:11:08.145Z,78.54
2022-10-29T06:13:35.990Z,78.90
2022-10-29T06:16:03.042Z,78.82
2022-10-29T06:18:30.064Z,78.85
2022-10-29T06:21:00.548Z,79.02
2022-10-29T06:23:28.642Z,79.46
2022-10-29T06:25:55.459Z,79.59
2022-10-29T06:28:22.278Z,78.98
2022-10-29T06:30:50.432Z,78.16
2022-10-29T06:33:18.677Z,76.95
2022-10-29T06:35:45.999Z,77.30
2022-10-29T06:38:13.244Z,76.70
2022-10-29T06:40:41.595Z,76.33
2022-10-29T06:43:11.747Z,76.16
2022-10-29T06:45:38.679Z,76.34
2022-10-29T06:48:06.084Z,76.94
2022-10-29T06:50:33.034Z,77.44
2022-10-29T06:53:02.764Z,76.99
2022-10-29T06:55:30.164Z,76.44
2022-10-29T06:58:02.106Z,76.62
2022-10-29T07:00:30.284Z,76.29
2022-10-29T07:02:58.028Z,75.21
2022-10-29T07:05:26.419Z,75.86
2022-10-29T07:07:58.405Z,76.48
2022-10-29T07:10:28.956Z,75.60
2022-10-29T07:12:56.147Z,75.72
2022-10-29T07:15:27.233Z,74.36
2022-10-29T07:18:06.064Z,74.15
2022-10-29T07:20:36.512Z,73.09
2022-10-29T07:23:03.288Z,72.43
2022-10-29T07:25:31.882Z,72.22
2022-10-29T07:28:12.278Z,71.07
2022-10-29T07:30:40.135Z,70.85
2022-10-29T07:33:07.128Z,71.17
2022-10-29T07:35:34.860Z,71.90
2022-10-29T07:38:08.784Z,71.97
2022-10-29T07:40:38.907Z,72.17
2022-10-29T07:43:05.950Z,72.75
2022-10-29T07:45:33.713Z,72.87
2022-10-29T07:48:03.124Z,73.56
2022-10-29T07:50:31.520Z,73.23
2022-10-29T07:53:03.008Z,72.74
2022-10-29T07:58:07.956Z,73.07
2022-10-29T08:00:37.721Z,73.51
2022-10-29T08:03:05.111Z,74.23
2022-10-29T08:05:32.149Z,74.24
2022-10-29T08:08:00.043Z,74.02
2022-10-29T08:10:28.441Z,72.17
2022-10-29T08:12:58.943Z,72.47
2022-10-29T08:15:27.972Z,72.26
2022-10-29T08:17:55.280Z,71.87
2022-10-29T08:20:25.063Z,70.64
2022-10-29T08:22:51.925Z,71.30
2022-10-29T08:25:18.962Z,70.79
2022-10-29T08:27:45.876Z,70.31
2022-10-29T08:30:14.183Z,69.37
2022-10-29T08:32:47.511Z,66.57
2022-10-29T08:35:15.289Z,67.56
2022-10-29T08:37:44.287Z,67.83
2022-10-29T08:40:30.412Z,65.07
2022-10-29T08:43:34.572Z,64.72
2022-10-29T08:46:01.705Z,65.00
2022-10-29T08:48:34.250Z,66.75
2022-10-29T08:51:30.455Z,66.62
2022-10-29T08:54:25.480Z,66.40
2022-10-29T08:56:54.144Z,66.11
2022-10-29T08:59:24.264Z,65.64
2022-10-29T09:01:53.655Z,65.93
2022-10-29T09:04:31.692Z,65.23
2022-10-29T09:07:26.048Z,65.24
2022-10-29T09:10:20.587Z,65.29
2022-10-29T09:13:25.960Z,64.63
2022-10-29T09:16:24.367Z,64.89
2022-10-29T09:19:03.491Z,64.31
2022-10-29T09:21:48.896Z,64.88
2022-10-29T09:24:30.653Z,63.89
2022-10-29T09:27:09.717Z,62.98
2022-10-29T09:30:03.353Z,61.25
2022-10-29T09:32:47.782Z,60.24
2022-10-29T09:35:19.282Z,57.87
2022-10-29T09:37:59.380Z,52.97
2022-10-29T09:40:34.342Z,49.95
2022-10-29T09:43:13.268Z,46.42
2022-10-29T09:45:48.811Z,45.76
2022-10-29T09:48:31.423Z,44.41
2022-10-29T09:51:11.210Z,42.23
2022-10-29T09:53:37.994Z,41.07
2022-10-29T09:56:08.376Z,41.30
2022-10-29T09:58:41.636Z,39.53
2022-10-29T10:01:08.589Z,39.06
2022-10-29T10:03:45.782Z,39.86
2022-10-29T10:06:16.190Z,38.83
2022-10-29T10:09:04.470Z,38.59
2022-10-29T10:11:40.042Z,38.26
2022-10-29T10:14:20.712Z,38.45
2022-10-29T10:17:00.435Z,39.16
2022-10-29T10:19:31.197Z,37.03
2022-10-29T10:22:04.529Z,36.34
2022-10-29T10:24:38.212Z,35.74
2022-10-29T10:27:20.169Z,35.01
2022-10-29T10:30:04.939Z,36.96
2022-10-29T10:32:32.407Z,36.91
2022-10-29T10:34:59.192Z,37.80
2022-10-29T10:37:26.090Z,37.82
2022-10-29T10:40:04.850Z,38.59
2022-10-29T10:42:37.131Z,36.65
2022-10-29T10:45:23.027Z,36.13
2022-10-29T10:47:57.427Z,35.25
2022-10-29T10:50:34.013Z,35.27
2022-10-29T10:53:05.970Z,34.45
2022-10-29T10:55:37.937Z,34.19
2022-10-29T10:58:42.939Z,33.06
2022-10-29T11:01:20.689Z,32.98
2022-10-29T11:03:52.017Z,33.40
2022-10-29T11:06:29.878Z,31.65
2022-10-29T11:09:35.929Z,32.86
2022-10-29T11:12:11.695Z,32.40
2022-10-29T11:14:49.009Z,31.36
2022-10-29T11:17:52.916Z,29.93
2022-10-29T11:20:35.681Z,30.67
2022-10-29T11:23:25.503Z,28.94
2022-10-29T11:26:08.175Z,28.49
2022-10-29T11:28:53.970Z,28.98
2022-10-29T11:31:31.087Z,31.78
2022-10-29T11:34:39.226Z,32.09
2022-10-29T11:37:27.770Z,30.90
2022-10-29T11:40:04.460Z,30.83
2022-10-29T11:42:31.399Z,33.35
2022-10-29T11:45:00.967Z,31.96
2022-10-29T11:47:39.660Z,32.69
2022-10-29T11:50:28.228Z,31.54
2022-10-29T11:53:02.576Z,30.30
2022-10-29T11:55:43.279Z,29.61
2022-10-29T11:58:37.974Z,29.71
2022-10-29T12:01:50.462Z,28.97
2022-10-29T12:04:32.843Z,28.26
2022-10-29T12:07:18.344Z,27.79
2022-10-29T12:10:30.419Z,27.44
2022-10-29T12:13:33.299Z,27.01
2022-10-29T12:16:33.834Z,26.42
2022-10-29T12:19:14.957Z,25.67
2022-10-29T12:22:32.134Z,25.66
2022-10-29T12:25:19.018Z,25.18
2022-10-29T12:28:00.895Z,24.83
2022-10-29T12:30:34.685Z,25.13
2022-10-29T12:33:42.073Z,24.90
2022-10-29T12:36:48.931Z,25.42
2022-10-29T12:39:45.555Z,23.44
2022-10-29T12:42:26.269Z,24.17
2022-10-29T12:45:26.149Z,23.09
2022-10-29T12:47:57.294Z,22.51
2022-10-29T12:51:05.653Z,22.40
2022-10-29T12:53:54.031Z,21.95
2022-10-29T12:56:22.883Z,22.03
2022-10-29T12:58:57.051Z,23.02
2022-10-29T13:01:50.017Z,21.70
2022-10-29T13:04:34.161Z,21.60
2022-10-29T13:07:05.174Z,21.51
2022-10-29T13:09:36.491Z,21.42
2022-10-29T13:12:12.358Z,21.63
2022-10-29T13:14:56.450Z,20.63
2022-10-29T13:17:33.077Z,21.74
2022-10-29T13:20:04.772Z,22.57
2022-10-29T13:22:57.130Z,22.85
2022-10-29T13:25:40.355Z,22.84
2022-10-29T13:28:10.053Z,23.94
2022-10-29T13:30:39.871Z,22.74
2022-10-29T13:33:21.926Z,22.86
2022-10-29T13:36:01.225Z,24.07
2022-10-29T13:39:19.476Z,24.14
2022-10-29T13:41:51.167Z,22.90
2022-10-29T13:44:29.068Z,22.91
2022-10-29T13:47:21.630Z,23.68
2022-10-29T13:49:49.489Z,23.95
2022-10-29T13:52:21.670Z,23.70
2022-10-29T13:55:03.033Z,25.10
2022-10-29T13:57:42.745Z,24.56
2022-10-29T14:00:12.114Z,24.01
2022-10-29T14:03:14.964Z,23.87
2022-10-29T14:05:56.084Z,24.32
2022-10-29T14:08:37.856Z,23.93
2022-10-29T14:11:18.225Z,24.65
2022-10-29T14:13:51.219Z,24.68
2022-10-29T14:16:21.969Z,25.54
2022-10-29T14:18:50.736Z,25.73
2022-10-29T14:21:37.864Z,25.74
2022-10-29T14:24:08.297Z,26.10
2022-10-29T14:26:39.653Z,27.20
2022-10-29T14:29:26.046Z,28.35
2022-10-29T14:32:20.077Z,30.11
2022-10-29T14:34:51.660Z,31.37
2022-10-29T14:37:33.498Z,31.99
2022-10-29T14:40:06.322Z,32.42
2022-10-29T14:42:43.088Z,32.37
2022-10-29T14:45:25.343Z,32.21
2022-10-29T14:47:58.327Z,32.62
2022-10-29T14:50:30.096Z,32.55
2022-10-29T14:53:02.054Z,34.44
2022-10-29T14:55:35.312Z,36.03
2022-10-29T14:58:28.650Z,37.81
2022-10-29T15:00:57.329Z,39.19
2022-10-29T15:03:27.288Z,39.90
2022-10-29T15:06:18.897Z,41.12
2022-10-29T15:08:58.152Z,42.19
2022-10-29T15:11:36.569Z,43.35
2022-10-29T15:14:23.736Z,43.32
2022-10-29T15:16:50.560Z,44.42
2022-10-29T15:19:18.104Z,45.33
2022-10-29T15:21:45.387Z,46.83
2022-10-29T15:24:20.753Z,47.42
2022-10-29T15:26:56.516Z,47.85
2022-10-29T15:29:32.206Z,48.47
2022-10-29T15:32:01.067Z,48.70
2022-10-29T15:34:37.558Z,49.73
2022-10-29T15:37:19.635Z,50.88
2022-10-29T15:40:09.501Z,51.64
2022-10-29T15:42:37.170Z,52.86
2022-10-29T15:45:15.685Z,53.40
2022-10-29T15:47:48.281Z,54.24
2022-10-29T15:50:26.495Z,55.41
2022-10-29T15:52:57.576Z,56.45
2022-10-29T15:55:34.401Z,57.34
2022-10-29T15:58:16.419Z,58.14
2022-10-29T16:00:43.794Z,58.54
2022-10-29T16:03:20.103Z,59.86
2022-10-29T16:06:05.623Z,60.99
2022-10-29T16:08:42.104Z,61.22
2022-10-29T16:11:14.455Z,62.38
2022-10-29T16:13:41.842Z,63.40
2022-10-29T16:16:25.509Z,63.73
2022-10-29T16:18:53.312Z,64.69
2022-10-29T16:21:24.255Z,64.96
2022-10-29T16:23:51.757Z,65.61
2022-10-29T16:26:22.829Z,65.57
2022-10-29T16:28:50.170Z,65.68
2022-10-29T16:31:26.175Z,66.17
2022-10-29T16:33:57.501Z,66.40
2022-10-29T16:36:24.940Z,67.11
2022-10-29T16:38:51.712Z,67.26
2022-10-29T16:41:20.119Z,67.17
2022-10-29T16:43:47.849Z,66.73
2022-10-29T16:46:15.441Z,66.95
2022-10-29T16:48:42.275Z,66.52
2022-10-29T16:51:09.233Z,66.73
2022-10-29T16:53:36.070Z,67.65
2022-10-29T16:56:03.460Z,67.86
2022-10-29T16:58:30.274Z,68.19
2022-10-29T17:01:05.832Z,67.91
2022-10-29T17:03:33.169Z,68.30
2022-10-29T17:06:10.645Z,68.54
2022-10-29T17:08:38.214Z,68.55
2022-10-29T17:11:08.724Z,68.54
2022-10-29T17:13:35.952Z,68.74
2022-10-29T17:16:14.616Z,68.64
2022-10-29T17:18:41.470Z,68.82
2022-10-29T17:21:08.278Z,68.73
2022-10-29T17:23:35.076Z,68.85
2022-10-29T17:26:02.243Z,68.91
2022-10-29T17:28:29.450Z,69.29
2022-10-29T17:30:56.247Z,69.12
2022-10-29T17:33:23.087Z,69.83
2022-10-29T17:35:49.892Z,71.18
2022-10-29T17:38:16.685Z,70.86
2022-10-29T17:40:46.096Z,70.71
2022-10-29T17:43:13.245Z,70.96
2022-10-29T17:45:42.115Z,71.06
2022-10-29T17:48:08.926Z,71.11
2022-10-29T17:50:36.236Z,71.17
2022-10-29T17:53:03.413Z,71.50
2022-10-29T17:55:30.480Z,72.01
2022-10-29T17:57:57.480Z,71.73
2022-10-29T18:00:25.330Z,71.76
2022-10-29T18:02:52.146Z,72.35
2022-10-29T18:05:19.462Z,72.34
2022-10-29T18:07:46.268Z,71.80
2022-10-29T18:10:13.112Z,72.52
2022-10-29T18:12:39.920Z,72.62
2022-10-29T18:15:07.392Z,72.58
2022-10-29T18:17:34.249Z,72.61
2022-10-29T18:20:01.123Z,72.73
2022-10-29T18:22:28.167Z,72.75
2022-10-29T18:24:54.983Z,72.48
2022-10-29T18:27:21.754Z,72.38
2022-10-29T18:29:48.624Z,72.94
2022-10-29T18:32:15.685Z,72.78
2022-10-29T18:34:42.507Z,72.92
2022-10-29T18:37:09.301Z,73.82
2022-10-29T18:39:36.135Z,73.97
2022-10-29T18:42:02.953Z,73.74
2022-10-29T18:44:29.831Z,73.71
2022-10-29T18:46:56.609Z,73.73
2022-10-29T18:49:23.557Z,73.32
2022-10-29T18:51:50.356Z,73.56
2022-10-29T18:54:17.250Z,73.75
2022-10-29T18:56:44.174Z,73.84
2022-10-29T18:59:15.541Z,74.42
2022-10-29T19:01:42.487Z,75.22
2022-10-29T19:04:14.023Z,76.16
2022-10-29T19:06:41.096Z,76.13
2022-10-29T19:09:10.728Z,75.05
2022-10-29T19:11:37.808Z,75.68
2022-10-29T19:14:08.023Z,75.81
2022-10-29T19:16:34.990Z,76.09
2022-10-29T19:21:39.090Z,76.12
2022-10-29T19:24:07.326Z,76.48
2022-10-29T19:26:35.899Z,76.48
2022-10-29T19:29:05.153Z,75.83
2022-10-29T19:31:34.708Z,77.12
2022-10-29T19:34:05.925Z,78.10
2022-10-29T19:36:34.823Z,77.56
2022-10-29T19:39:01.964Z,77.91
2022-10-29T19:41:29.314Z,77.20
2022-10-29T19:44:02.183Z,77.04
2022-10-29T19:46:29.943Z,76.77
2022-10-29T19:48:58.312Z,77.12
2022-10-29T19:51:25.175Z,76.48
2022-10-29T19:53:52.015Z,76.63
2022-10-29T19:56:20.526Z,76.55
2022-10-29T19:58:47.386Z,76.58
2022-10-29T20:01:17.119Z,77.27
2022-10-29T20:03:45.106Z,76.95
2022-10-29T20:06:12.306Z,76.91
2022-10-29T20:08:39.453Z,77.67
2022-10-29T20:11:06.677Z,77.37
2022-10-29T20:13:33.819Z,77.98
2022-10-29T20:16:06.147Z,77.42
2022-10-29T20:18:35.388Z,77.38
2022-10-29T20:21:02.285Z,76.67
2022-10-29T20:23:29.213Z,76.55
2022-10-29T20:25:56.000Z,77.25
2022-10-29T20:28:22.874Z,77.17
2022-10-29T20:30:49.706Z,77.37
2022-10-29T20:33:16.482Z,77.09
2022-10-29T20:35:43.285Z,77.21
2022-10-29T20:38:10.082Z,77.24
2022-10-29T20:40:37.054Z,77.40
2022-10-29T20:43:03.924Z,77.88
2022-10-29T20:45:30.789Z,77.63
2022-10-29T20:47:57.800Z,77.43
2022-10-29T20:50:24.840Z,76.86
2022-10-29T20:52:53.596Z,76.83
2022-10-29T20:55:20.448Z,76.67
2022-10-29T20:57:47.307Z,76.90
2022-10-29T21:00:14.591Z,76.96
2022-10-29T21:02:41.487Z,76.52
2022-10-29T21:05:08.856Z,76.15
2022-10-29T21:07:35.737Z,75.64
2022-10-29T21:10:02.520Z,76.06
2022-10-29T21:12:29.286Z,75.91
2022-10-29T21:14:56.076Z,76.19
2022-10-29T21:17:22.868Z,75.88
2022-10-29T21:19:49.741Z,75.97
2022-10-29T21:22:18.820Z,76.65
2022-10-29T21:24:46.111Z,76.90
2022-10-29T21:27:12.897Z,76.98
2022-10-29T21:29:39.745Z,77.27
2022-10-29T21:32:07.753Z,77.00
2022-10-29T21:34:36.009Z,76.98
2022-10-29T21:37:02.793Z,77.38
2022-10-29T21:39:29.846Z,77.52
2022-10-29T21:41:57.030Z,77.42
2022-10-29T21:44:23.804Z,78.71
2022-10-29T21:46:50.658Z,78.00
2022-10-29T21:49:17.455Z,77.68
2022-10-29T21:51:44.227Z,77.76
2022-10-29T21:54:11.040Z,77.56
2022-10-29T21:56:37.842Z,77.14
2022-10-29T21:59:04.602Z,77.40
2022-10-29T22:01:31.539Z,77.05
2022-10-29T22:03:58.427Z,76.88
2022-10-29T22:06:28.325Z,77.18
2022-10-29T22:08:58.577Z,77.44
2022-10-29T22:11:27.260Z,78.38
2022-10-29T22:13:54.944Z,78.86
2022-10-29T22:16:22.801Z,78.96
2022-10-29T22:18:50.893Z,78.67
2022-10-29T22:21:21.342Z,79.61
2022-10-29T22:23:51.571Z,79.02
2022-10-29T22:26:23.847Z,79.05
2022-10-29T22:28:50.698Z,79.41
2022-10-29T22:31:19.875Z,78.88
2022-10-29T22:33:47.328Z,79.08
2022-10-29T22:36:22.126Z,79.27
2022-10-29T22:38:57.530Z,79.01
2022-10-29T22:41:28.540Z,79.08
2022-10-29T22:43:58.787Z,79.30
2022-10-29T22:46:26.960Z,79.52
2022-10-29T22:48:53.927Z,79.45
2022-10-29T22:51:24.520Z,79.37
2022-10-29T22:53:52.768Z,79.06
2022-10-29T22:56:32.707Z,77.55
2022-10-29T22:58:59.992Z,77.37
2022-10-29T23:01:29.855Z,76.91
2022-10-29T23:03:58.664Z,76.58
2022-10-29T23:06:26.271Z,77.19
2022-10-29T23:08:56.711Z,77.57
2022-10-29T23:11:26.609Z,79.09
2022-10-29T23:14:03.598Z,78.82
2022-10-29T23:16:32.663Z,79.68
2022-10-29T23:19:02.642Z,79.50
2022-10-29T23:21:29.849Z,79.16
2022-10-29T23:23:57.758Z,79.39
2022-10-29T23:26:25.754Z,79.76
2022-10-29T23:28:52.550Z,79.31
2022-10-29T23:31:25.697Z,78.88
2022-10-29T23:33:55.071Z,79.20
2022-10-29T23:36:24.396Z,79.36
2022-10-29T23:38:59.867Z,79.48
2022-10-29T23:41:30.978Z,79.67
2022-10-29T23:43:58.338Z,79.75
2022-10-29T23:46:25.163Z,79.49
2022-10-29T23:48:51.985Z,79.45
2022-10-29T23:51:19.109Z,79.41
2022-10-29T23:53:45.972Z,79.63
2022-10-29T23:56:12.742Z,79.37
2022-10-29T23:58:39.507Z,79.69
